createdAt,value
2019-01-12T00:00:12.281Z,5.30
2019-01-12T00:02:40.804Z,5.28
2019-01-12T00:05:09.673Z,5.25
2019-01-12T00:07:38.140Z,5.34
2019-01-12T00:10:08.793Z,5.33
2019-01-12T00:12:37.421Z,5.33
2019-01-12T00:15:07.457Z,5.29
2019-01-12T00:17:36.238Z,5.31
2019-01-12T00:20:07.016Z,5.27
2019-01-12T00:22:35.776Z,5.27
2019-01-12T00:25:06.724Z,5.24
2019-01-12T00:27:35.323Z,5.28
2019-01-12T00:30:05.180Z,5.28
2019-01-12T00:32:33.724Z,5.28
2019-01-12T00:35:02.300Z,5.26
2019-01-12T00:37:30.802Z,5.29
2019-01-12T00:39:59.328Z,5.27
2019-01-12T00:42:27.908Z,5.35
2019-01-12T00:44:56.296Z,5.38
2019-01-12T00:47:24.849Z,5.32
2019-01-12T00:49:53.337Z,5.28
2019-01-12T00:52:21.877Z,5.23
2019-01-12T00:54:50.690Z,5.30
2019-01-12T00:57:19.346Z,5.28
2019-01-12T00:59:47.845Z,5.26
2019-01-12T01:02:16.451Z,5.24
2019-01-12T01:04:44.864Z,5.24
2019-01-12T01:07:13.465Z,5.27
2019-01-12T01:09:41.967Z,5.27
2019-01-12T01:12:10.753Z,5.23
2019-01-12T01:14:39.620Z,5.21
2019-01-12T01:17:08.078Z,5.24
2019-01-12T01:19:36.684Z,5.23
2019-01-12T01:22:05.175Z,5.26
2019-01-12T01:24:33.690Z,5.26
2019-01-12T01:27:02.245Z,5.19
2019-01-12T01:29:30.714Z,5.19
2019-01-12T01:31:59.186Z,5.22
2019-01-12T01:34:27.795Z,5.20
2019-01-12T01:36:56.305Z,5.14
2019-01-12T01:39:24.781Z,5.13
2019-01-12T01:41:53.450Z,5.14
2019-01-12T01:44:21.979Z,5.13
2019-01-12T01:46:50.548Z,5.18
2019-01-12T01:49:19.155Z,5.18
2019-01-12T01:51:47.685Z,5.15
2019-01-12T01:54:16.451Z,5.09
2019-01-12T01:56:45.281Z,5.08
2019-01-12T01:59:13.856Z,5.08
2019-01-12T02:01:42.593Z,5.09
2019-01-12T02:04:11.518Z,5.08
2019-01-12T02:06:40.060Z,5.04
2019-01-12T02:09:08.640Z,5.02
2019-01-12T02:11:37.188Z,5.04
2019-01-12T02:14:05.844Z,5.00
2019-01-12T02:16:34.399Z,5.02
2019-01-12T02:19:02.954Z,5.03
2019-01-12T02:21:31.429Z,5.05
2019-01-12T02:24:00.001Z,5.06
2019-01-12T02:26:28.508Z,5.03
2019-01-12T02:28:56.973Z,5.02
2019-01-12T02:31:25.528Z,5.00
2019-01-12T02:33:54.001Z,4.92
2019-01-12T02:36:22.587Z,4.94
2019-01-12T02:38:51.050Z,4.95
2019-01-12T02:41:19.589Z,4.95
2019-01-12T02:43:48.347Z,4.98
2019-01-12T02:46:17.311Z,4.98
2019-01-12T02:48:45.770Z,4.93
2019-01-12T02:51:14.428Z,4.93
2019-01-12T02:53:42.957Z,4.94
2019-01-12T02:56:11.909Z,4.95
2019-01-12T02:58:40.621Z,4.97
2019-01-12T03:01:09.247Z,4.97
2019-01-12T03:03:37.626Z,4.98
2019-01-12T03:06:06.114Z,4.97
2019-01-12T03:08:34.599Z,4.97
2019-01-12T03:11:03.105Z,4.94
2019-01-12T03:13:31.672Z,4.94
2019-01-12T03:16:00.129Z,4.91
2019-01-12T03:18:28.601Z,4.91
2019-01-12T03:20:57.142Z,4.94
2019-01-12T03:23:25.615Z,4.94
2019-01-12T03:25:54.127Z,4.93
2019-01-12T03:28:22.641Z,4.95
2019-01-12T03:30:51.170Z,4.95
2019-01-12T03:33:19.714Z,4.97
2019-01-12T03:35:48.205Z,4.99
2019-01-12T03:38:16.679Z,4.97
2019-01-12T03:40:45.241Z,4.93
2019-01-12T03:43:14.105Z,4.94
2019-01-12T03:45:42.617Z,4.98
2019-01-12T03:48:11.107Z,4.93
2019-01-12T03:50:39.634Z,4.92
2019-01-12T03:53:08.135Z,4.91
2019-01-12T03:55:36.593Z,4.90
2019-01-12T03:58:05.434Z,4.87
2019-01-12T04:00:33.971Z,4.86
2019-01-12T04:03:02.464Z,4.85
2019-01-12T04:05:30.919Z,4.77
2019-01-12T04:07:59.379Z,4.81
2019-01-12T04:10:27.937Z,4.89
2019-01-12T04:12:56.466Z,4.87
2019-01-12T04:15:25.005Z,4.87
2019-01-12T04:17:53.595Z,4.89
2019-01-12T04:20:22.108Z,4.87
2019-01-12T04:22:50.653Z,4.84
2019-01-12T04:25:19.257Z,4.86
2019-01-12T04:27:47.794Z,4.88
2019-01-12T04:30:16.912Z,4.90
2019-01-12T04:32:45.398Z,4.90
2019-01-12T04:35:13.940Z,4.92
2019-01-12T04:37:42.453Z,4.88
2019-01-12T04:40:18.052Z,4.83
2019-01-12T04:42:46.522Z,4.81
2019-01-12T04:45:15.229Z,4.87
2019-01-12T04:47:43.709Z,4.85
2019-01-12T04:50:14.054Z,4.85
2019-01-12T04:52:42.561Z,4.82
2019-01-12T04:55:11.262Z,4.83
2019-01-12T04:57:39.753Z,4.84
2019-01-12T05:00:11.415Z,4.85
2019-01-12T05:02:39.975Z,4.87
2019-01-12T05:05:08.557Z,4.91
2019-01-12T05:07:37.067Z,4.89
2019-01-12T05:10:08.445Z,4.90
2019-01-12T05:12:37.107Z,4.87
2019-01-12T05:15:08.440Z,4.89
2019-01-12T05:17:36.904Z,4.91
2019-01-12T05:20:08.509Z,4.82
2019-01-12T05:22:36.971Z,4.86
2019-01-12T05:25:06.222Z,4.78
2019-01-12T05:27:34.673Z,4.79
2019-01-12T05:30:04.878Z,4.85
2019-01-12T05:32:33.350Z,4.88
2019-01-12T05:35:01.849Z,4.90
2019-01-12T05:37:30.290Z,4.82
2019-01-12T05:39:58.789Z,4.87
2019-01-12T05:42:27.309Z,4.85
2019-01-12T05:44:55.921Z,4.89
2019-01-12T05:47:24.379Z,4.91
2019-01-12T05:49:54.241Z,4.89
2019-01-12T05:52:22.800Z,4.92
2019-01-12T05:54:51.277Z,4.94
2019-01-12T05:57:19.741Z,4.97
2019-01-12T05:59:48.274Z,4.99
2019-01-12T06:02:16.830Z,5.00
2019-01-12T06:04:45.358Z,5.01
2019-01-12T06:07:13.860Z,5.03
2019-01-12T06:09:42.315Z,5.06
2019-01-12T06:12:10.888Z,5.02
2019-01-12T06:14:39.356Z,5.04
2019-01-12T06:17:07.837Z,5.06
2019-01-12T06:19:36.287Z,5.01
2019-01-12T06:22:04.858Z,5.04
2019-01-12T06:24:33.384Z,5.01
2019-01-12T06:27:01.890Z,4.98
2019-01-12T06:29:30.833Z,4.88
2019-01-12T06:31:59.369Z,4.89
2019-01-12T06:34:27.932Z,4.84
2019-01-12T06:36:56.365Z,4.87
2019-01-12T06:39:24.926Z,4.90
2019-01-12T06:41:53.514Z,4.92
2019-01-12T06:44:22.007Z,4.95
2019-01-12T06:46:50.541Z,4.97
2019-01-12T06:49:19.183Z,5.05
2019-01-12T06:51:47.718Z,5.05
2019-01-12T06:54:16.316Z,5.02
2019-01-12T06:56:44.833Z,4.93
2019-01-12T06:59:13.419Z,4.89
2019-01-12T07:01:41.921Z,4.87
2019-01-12T07:04:10.650Z,4.82
2019-01-12T07:06:39.185Z,4.86
2019-01-12T07:09:07.923Z,4.83
2019-01-12T07:11:36.383Z,4.82
2019-01-12T07:14:04.943Z,4.80
2019-01-12T07:16:33.398Z,4.81
2019-01-12T07:19:01.927Z,4.82
2019-01-12T07:21:30.547Z,4.85
2019-01-12T07:23:59.087Z,4.85
2019-01-12T07:26:27.793Z,4.81
2019-01-12T07:28:56.265Z,4.81
2019-01-12T07:31:24.831Z,4.81
2019-01-12T07:33:53.382Z,4.87
2019-01-12T07:36:22.008Z,4.83
2019-01-12T07:38:50.554Z,4.88
2019-01-12T07:41:19.133Z,4.85
2019-01-12T07:43:47.639Z,4.89
2019-01-12T07:46:16.099Z,4.89
2019-01-12T07:48:44.639Z,4.89
2019-01-12T07:51:13.190Z,4.90
2019-01-12T07:53:41.757Z,4.84
2019-01-12T07:56:10.270Z,4.82
2019-01-12T07:58:38.851Z,4.82
2019-01-12T08:01:07.430Z,4.80
2019-01-12T08:03:36.045Z,4.78
2019-01-12T08:06:04.710Z,4.79
2019-01-12T08:08:33.248Z,4.88
2019-01-12T08:11:02.245Z,4.85
2019-01-12T08:13:30.919Z,4.93
2019-01-12T08:15:59.459Z,4.75
2019-01-12T08:18:27.938Z,4.75
2019-01-12T08:20:56.472Z,4.82
2019-01-12T08:23:25.004Z,4.83
2019-01-12T08:25:53.595Z,4.80
2019-01-12T08:28:22.110Z,4.85
2019-01-12T08:30:50.603Z,4.89
2019-01-12T08:33:19.210Z,4.88
2019-01-12T08:35:47.764Z,4.91
2019-01-12T08:38:16.327Z,4.89
2019-01-12T08:40:44.811Z,4.93
2019-01-12T08:43:13.467Z,4.91
2019-01-12T08:45:41.929Z,4.92
2019-01-12T08:48:10.481Z,5.00
2019-01-12T08:50:39.293Z,4.95
2019-01-12T08:53:10.681Z,4.94
2019-01-12T08:55:39.205Z,4.92
2019-01-12T08:58:07.785Z,4.95
2019-01-12T09:00:36.240Z,4.88
2019-01-12T09:03:04.792Z,4.90
2019-01-12T09:05:33.456Z,4.87
2019-01-12T09:08:01.906Z,4.80
2019-01-12T09:10:30.516Z,4.76
2019-01-12T09:12:59.161Z,4.70
2019-01-12T09:15:27.715Z,4.72
2019-01-12T09:17:56.173Z,4.65
2019-01-12T09:20:25.027Z,4.64
2019-01-12T09:22:53.548Z,4.68
2019-01-12T09:25:22.438Z,4.71
2019-01-12T09:27:51.064Z,4.74
2019-01-12T09:30:20.412Z,4.77
2019-01-12T09:32:48.989Z,4.83
2019-01-12T09:35:17.549Z,4.87
2019-01-12T09:37:46.049Z,4.86
2019-01-12T09:40:16.683Z,4.89
2019-01-12T09:42:45.306Z,4.93
2019-01-12T09:45:15.715Z,4.98
2019-01-12T09:47:44.294Z,4.99
2019-01-12T09:50:17.530Z,5.02
2019-01-12T09:52:46.164Z,5.05
2019-01-12T09:55:15.223Z,5.11
2019-01-12T09:57:44.067Z,5.24
2019-01-12T10:00:21.320Z,5.42
2019-01-12T10:02:49.870Z,5.42
2019-01-12T10:05:18.528Z,5.48
2019-01-12T10:07:47.130Z,5.41
2019-01-12T10:10:17.970Z,5.50
2019-01-12T10:12:46.512Z,5.60
2019-01-12T10:15:15.562Z,5.58
2019-01-12T10:17:44.183Z,5.64
2019-01-12T10:20:15.337Z,5.70
2019-01-12T10:22:44.070Z,5.78
2019-01-12T10:25:13.224Z,5.77
2019-01-12T10:27:41.760Z,5.78
2019-01-12T10:30:21.214Z,5.77
2019-01-12T10:32:49.845Z,5.84
2019-01-12T10:35:18.417Z,5.86
2019-01-12T10:37:46.974Z,5.81
2019-01-12T10:40:17.375Z,5.64
2019-01-12T10:42:45.930Z,5.69
2019-01-12T10:45:16.931Z,5.68
2019-01-12T10:47:45.657Z,5.69
2019-01-12T10:50:22.930Z,5.68
2019-01-12T10:52:51.690Z,5.66
2019-01-12T10:55:20.333Z,5.63
2019-01-12T10:57:49.336Z,5.65
2019-01-12T11:00:20.689Z,5.73
2019-01-12T11:02:50.353Z,5.63
2019-01-12T11:05:19.250Z,5.69
2019-01-12T11:07:47.801Z,5.78
2019-01-12T11:10:16.384Z,5.84
2019-01-12T11:12:45.137Z,5.96
2019-01-12T11:15:16.612Z,5.82
2019-01-12T11:17:45.238Z,5.81
2019-01-12T11:20:13.781Z,5.81
2019-01-12T11:22:42.385Z,5.82
2019-01-12T11:25:13.552Z,5.92
2019-01-12T11:27:42.211Z,5.85
2019-01-12T11:30:19.006Z,5.89
2019-01-12T11:32:47.561Z,5.85
2019-01-12T11:35:16.177Z,5.97
2019-01-12T11:37:44.769Z,6.02
2019-01-12T11:40:18.464Z,5.98
2019-01-12T11:42:47.962Z,5.97
2019-01-12T11:45:16.705Z,6.02
2019-01-12T11:47:45.311Z,5.96
2019-01-12T11:50:17.218Z,5.93
2019-01-12T11:52:46.772Z,5.88
2019-01-12T11:55:16.879Z,5.90
2019-01-12T11:57:45.492Z,5.81
2019-01-12T12:00:25.635Z,5.79
2019-01-12T12:02:54.448Z,5.76
2019-01-12T12:05:22.956Z,5.72
2019-01-12T12:07:51.732Z,5.68
2019-01-12T12:10:21.068Z,5.84
2019-01-12T12:12:49.608Z,5.95
2019-01-12T12:15:20.659Z,5.93
2019-01-12T12:17:49.382Z,5.86
2019-01-12T12:20:25.580Z,5.88
2019-01-12T12:22:54.315Z,5.86
2019-01-12T12:25:22.869Z,5.78
2019-01-12T12:27:51.459Z,5.84
2019-01-12T12:30:24.977Z,5.80
2019-01-12T12:32:53.600Z,5.79
2019-01-12T12:35:22.173Z,5.79
2019-01-12T12:37:50.881Z,5.72
2019-01-12T12:40:20.957Z,5.75
2019-01-12T12:42:49.594Z,5.80
2019-01-12T12:45:29.582Z,5.85
2019-01-12T12:47:58.151Z,5.91
2019-01-12T12:50:26.762Z,5.91
2019-01-12T12:52:55.386Z,5.90
2019-01-12T12:55:23.872Z,5.92
2019-01-12T12:57:52.417Z,6.05
2019-01-12T13:00:26.111Z,6.07
2019-01-12T13:02:54.765Z,6.06
2019-01-12T13:05:23.403Z,5.97
2019-01-12T13:07:52.022Z,6.01
2019-01-12T13:10:23.051Z,5.92
2019-01-12T13:12:51.618Z,5.89
2019-01-12T13:15:20.262Z,5.90
2019-01-12T13:17:49.126Z,5.93
2019-01-12T13:20:20.579Z,5.88
2019-01-12T13:22:49.568Z,5.75
2019-01-12T13:25:18.155Z,5.86
2019-01-12T13:27:46.813Z,5.91
2019-01-12T13:30:17.936Z,5.98
2019-01-12T13:32:46.441Z,5.99
2019-01-12T13:35:15.156Z,5.98
2019-01-12T13:37:43.763Z,6.04
2019-01-12T13:40:15.307Z,5.90
2019-01-12T13:42:43.949Z,5.94
2019-01-12T13:45:15.334Z,5.87
2019-01-12T13:47:43.817Z,5.85
2019-01-12T13:50:14.684Z,5.77
2019-01-12T13:52:43.212Z,5.74
2019-01-12T13:55:13.493Z,5.68
2019-01-12T13:57:47.346Z,5.70
2019-01-12T14:00:15.575Z,5.60
2019-01-12T14:02:44.125Z,5.54
2019-01-12T14:05:12.647Z,5.47
2019-01-12T14:07:41.218Z,5.56
2019-01-12T14:10:12.779Z,5.51
2019-01-12T14:12:41.380Z,5.54
2019-01-12T14:15:12.628Z,5.46
2019-01-12T14:17:41.230Z,5.37
2019-01-12T14:20:15.589Z,5.32
2019-01-12T14:22:44.338Z,5.27
2019-01-12T14:25:12.922Z,5.18
2019-01-12T14:27:41.528Z,5.21
2019-01-12T14:30:15.617Z,5.15
2019-01-12T14:32:43.505Z,5.15
2019-01-12T14:35:14.589Z,5.15
2019-01-12T14:37:43.348Z,5.03
2019-01-12T14:40:14.438Z,5.12
2019-01-12T14:42:43.113Z,5.06
2019-01-12T14:45:23.121Z,5.03
2019-01-12T14:47:51.825Z,5.08
2019-01-12T14:50:20.463Z,5.03
2019-01-12T14:52:49.078Z,5.05
2019-01-12T14:55:19.110Z,5.03
2019-01-12T14:57:47.740Z,4.97
2019-01-12T15:00:18.348Z,5.00
2019-01-12T15:02:46.908Z,4.98
2019-01-12T15:05:17.451Z,4.93
2019-01-12T15:07:46.444Z,4.94
2019-01-12T15:10:17.310Z,4.92
2019-01-12T15:12:46.299Z,4.87
2019-01-12T15:15:19.081Z,4.86
2019-01-12T15:17:47.999Z,4.82
2019-01-12T15:20:21.333Z,4.89
2019-01-12T15:22:49.956Z,4.88
2019-01-12T15:25:18.503Z,4.91
2019-01-12T15:27:46.989Z,4.83
2019-01-12T15:30:21.201Z,4.84
2019-01-12T15:32:50.013Z,4.84
2019-01-12T15:35:19.391Z,4.82
2019-01-12T15:37:47.933Z,4.82
2019-01-12T15:40:18.555Z,4.84
2019-01-12T15:42:47.081Z,4.86
2019-01-12T15:45:20.541Z,4.86
2019-01-12T15:47:49.199Z,4.84
2019-01-12T15:50:22.658Z,4.85
2019-01-12T15:52:51.268Z,4.82
2019-01-12T15:55:19.905Z,4.83
2019-01-12T15:57:48.494Z,4.82
2019-01-12T16:00:25.252Z,4.84
2019-01-12T16:02:53.824Z,4.84
2019-01-12T16:05:22.350Z,4.81
2019-01-12T16:07:50.984Z,4.85
2019-01-12T16:10:19.609Z,4.86
2019-01-12T16:12:48.122Z,4.78
2019-01-12T16:15:21.448Z,4.84
2019-01-12T16:17:50.171Z,4.82
2019-01-12T16:20:21.698Z,4.85
2019-01-12T16:22:50.255Z,4.84
2019-01-12T16:25:18.894Z,4.84
2019-01-12T16:27:47.446Z,4.85
2019-01-12T16:30:17.873Z,4.88
2019-01-12T16:32:46.876Z,4.89
2019-01-12T16:35:15.504Z,4.86
2019-01-12T16:37:44.128Z,4.89
2019-01-12T16:40:15.391Z,4.91
2019-01-12T16:42:44.299Z,4.90
2019-01-12T16:45:13.010Z,4.86
2019-01-12T16:47:41.575Z,4.84
2019-01-12T16:50:10.213Z,4.87
2019-01-12T16:52:38.754Z,4.86
2019-01-12T16:55:10.281Z,4.85
2019-01-12T16:57:38.907Z,4.89
2019-01-12T17:00:13.233Z,4.87
2019-01-12T17:02:42.049Z,4.89
2019-01-12T17:05:10.656Z,4.88
2019-01-12T17:07:39.280Z,4.89
2019-01-12T17:10:15.744Z,4.91
2019-01-12T17:12:44.289Z,4.88
2019-01-12T17:15:14.620Z,4.88
2019-01-12T17:17:43.265Z,4.88
2019-01-12T17:20:19.720Z,4.88
2019-01-12T17:22:46.354Z,4.82
2019-01-12T17:25:14.935Z,4.87
2019-01-12T17:27:43.571Z,4.86
2019-01-12T17:30:17.871Z,4.86
2019-01-12T17:32:49.200Z,4.88
2019-01-12T17:35:17.777Z,4.85
2019-01-12T17:37:47.115Z,4.87
2019-01-12T17:40:17.176Z,4.90
2019-01-12T17:42:45.718Z,4.93
2019-01-12T17:45:18.919Z,4.91
2019-01-12T17:47:47.811Z,4.91
2019-01-12T17:50:18.331Z,4.91
2019-01-12T17:52:47.127Z,4.91
2019-01-12T17:55:17.597Z,4.95
2019-01-12T17:57:46.233Z,4.95
2019-01-12T18:00:24.845Z,4.99
2019-01-12T18:02:53.779Z,4.99
2019-01-12T18:05:22.392Z,4.99
2019-01-12T18:07:51.184Z,5.01
2019-01-12T18:10:19.916Z,5.04
2019-01-12T18:12:48.584Z,5.06
2019-01-12T18:15:18.934Z,5.06
2019-01-12T18:17:47.447Z,5.09
2019-01-12T18:20:17.472Z,5.15
2019-01-12T18:22:46.183Z,5.17
2019-01-12T18:25:15.031Z,5.14
2019-01-12T18:27:43.593Z,5.15
2019-01-12T18:30:17.829Z,5.17
2019-01-12T18:32:46.716Z,5.16
2019-01-12T18:35:15.296Z,5.18
2019-01-12T18:37:44.140Z,5.19
2019-01-12T18:40:15.446Z,5.21
2019-01-12T18:42:44.204Z,5.22
2019-01-12T18:45:15.590Z,5.22
2019-01-12T18:47:44.336Z,5.24
2019-01-12T18:50:24.042Z,5.26
2019-01-12T18:52:53.218Z,5.26
2019-01-12T18:55:21.910Z,5.30
2019-01-12T18:57:50.605Z,5.27
2019-01-12T19:00:21.166Z,5.29
2019-01-12T19:02:50.220Z,5.26
2019-01-12T19:05:18.756Z,5.26
2019-01-12T19:07:48.017Z,5.27
2019-01-12T19:10:16.688Z,5.28
2019-01-12T19:12:45.447Z,5.33
2019-01-12T19:15:16.680Z,5.34
2019-01-12T19:17:45.394Z,5.38
2019-01-12T19:20:14.142Z,5.41
2019-01-12T19:22:43.082Z,5.40
2019-01-12T19:25:13.995Z,5.43
2019-01-12T19:27:42.603Z,5.44
2019-01-12T19:30:22.218Z,5.42
2019-01-12T19:32:50.847Z,5.40
2019-01-12T19:35:24.888Z,5.41
2019-01-12T19:37:53.572Z,5.43
2019-01-12T19:40:23.118Z,5.42
2019-01-12T19:42:52.020Z,5.49
2019-01-12T19:45:20.541Z,5.42
2019-01-12T19:47:49.201Z,5.48
2019-01-12T19:50:24.518Z,5.46
2019-01-12T19:52:53.257Z,5.52
2019-01-12T19:55:21.889Z,5.55
2019-01-12T19:57:50.503Z,5.55
2019-01-12T20:00:21.715Z,5.59
2019-01-12T20:02:50.432Z,5.59
2019-01-12T20:05:19.022Z,5.58
2019-01-12T20:07:48.755Z,5.61
2019-01-12T20:10:18.883Z,5.63
2019-01-12T20:12:47.379Z,5.60
2019-01-12T20:15:18.520Z,5.61
2019-01-12T20:17:47.048Z,5.63
2019-01-12T20:20:16.643Z,5.75
2019-01-12T20:22:45.196Z,5.71
2019-01-12T20:25:16.951Z,5.63
2019-01-12T20:27:45.551Z,5.64
2019-01-12T20:30:19.864Z,5.65
2019-01-12T20:32:57.731Z,5.63
2019-01-12T20:35:32.460Z,5.64
2019-01-12T20:38:04.033Z,5.63
2019-01-12T20:40:47.226Z,5.71
2019-01-12T20:43:36.397Z,5.69
2019-01-12T20:46:10.783Z,5.65
2019-01-12T20:48:51.299Z,5.66
2019-01-12T20:51:37.657Z,5.64
2019-01-12T20:54:21.380Z,5.67
2019-01-12T20:57:21.550Z,5.67
2019-01-12T20:59:53.192Z,5.64
2019-01-12T21:02:27.529Z,5.67
2019-01-12T21:05:20.203Z,5.74
2019-01-12T21:07:54.672Z,5.80
2019-01-12T21:10:29.402Z,5.80
2019-01-12T21:13:23.355Z,5.80
2019-01-12T21:15:55.183Z,5.78
2019-01-12T21:18:24.024Z,5.80
2019-01-12T21:20:52.894Z,5.69
2019-01-12T21:23:21.733Z,5.67
2019-01-12T21:25:50.389Z,5.68
2019-01-12T21:28:19.265Z,5.67
2019-01-12T21:30:47.918Z,5.68
2019-01-12T21:33:16.539Z,5.67
2019-01-12T21:35:45.317Z,5.62
2019-01-12T21:38:13.992Z,5.58
2019-01-12T21:40:42.851Z,5.55
2019-01-12T21:43:11.394Z,5.57
2019-01-12T21:45:40.130Z,5.62
2019-01-12T21:48:08.717Z,5.59
2019-01-12T21:50:37.321Z,5.59
2019-01-12T21:53:06.095Z,5.61
2019-01-12T21:55:34.726Z,5.63
2019-01-12T21:58:03.456Z,5.67
2019-01-12T22:00:32.477Z,5.70
2019-01-12T22:03:01.166Z,5.74
2019-01-12T22:05:29.767Z,5.73
2019-01-12T22:07:58.285Z,5.72
2019-01-12T22:10:26.930Z,5.71
2019-01-12T22:12:55.491Z,5.65
2019-01-12T22:15:24.064Z,5.67
2019-01-12T22:17:52.750Z,5.71
2019-01-12T22:20:21.383Z,5.76
2019-01-12T22:22:50.043Z,5.70
2019-01-12T22:25:18.582Z,5.60
2019-01-12T22:27:47.401Z,5.65
2019-01-12T22:30:17.771Z,5.69
2019-01-12T22:32:46.712Z,5.68
2019-01-12T22:35:15.263Z,5.64
2019-01-12T22:37:43.844Z,5.61
2019-01-12T22:40:17.538Z,5.53
2019-01-12T22:42:46.094Z,5.51
2019-01-12T22:45:14.713Z,5.55
2019-01-12T22:47:43.487Z,5.59
2019-01-12T22:50:15.106Z,5.54
2019-01-12T22:52:44.007Z,5.56
2019-01-12T22:55:13.860Z,5.54
2019-01-12T22:57:42.510Z,5.61
2019-01-12T23:00:41.146Z,5.63
2019-01-12T23:03:09.729Z,5.55
2019-01-12T23:05:38.330Z,5.60
2019-01-12T23:08:06.955Z,5.62
2019-01-12T23:10:35.632Z,5.60
2019-01-12T23:13:04.269Z,5.66
2019-01-12T23:15:32.788Z,5.60
2019-01-12T23:18:01.397Z,5.59
2019-01-12T23:20:30.076Z,5.57
2019-01-12T23:22:58.704Z,5.55
2019-01-12T23:25:27.553Z,5.57
2019-01-12T23:27:56.448Z,5.60
2019-01-12T23:30:24.929Z,5.58
2019-01-12T23:32:53.634Z,5.60
2019-01-12T23:35:22.251Z,5.54
2019-01-12T23:37:51.068Z,5.58
2019-01-12T23:40:19.630Z,5.59
2019-01-12T23:42:48.240Z,5.58
2019-01-12T23:45:16.798Z,5.58
2019-01-12T23:47:45.476Z,5.58
2019-01-12T23:50:14.407Z,5.63
2019-01-12T23:52:43.210Z,5.67
2019-01-12T23:55:11.832Z,5.64
2019-01-12T23:57:40.429Z,5.64
